sensor_id;sensor_type;location;lat;lon;timestamp;P1;durP1;ratioP1;P2;durP2;ratioP2
29700;SDS011;57917;51.380;-0.176;2022-08-01T00:02:24;2.90;;;1.90;;
29700;SDS011;57917;51.380;-0.176;2022-08-01T00:08:11;3.33;;;1.85;;
29700;SDS011;57917;51.380;-0.176;2022-08-01T00:14:04;3.03;;;1.73;;
29700;SDS011;57917;51.380;-0.176;2022-08-01T00:19:56;3.78;;;1.70;;
29700;SDS011;57917;51.380;-0.176;2022-08-01T00:25:48;2.33;;;1.60;;
29700;SDS011;57917;51.380;-0.176;2022-08-01T00:31:35;2.03;;;1.25;;
29700;SDS011;57917;51.380;-0.176;2022-08-01T00:37:23;3.10;;;1.42;;
29700;SDS011;57917;51.380;-0.176;2022-08-01T00:43:11;2.38;;;1.45;;
29700;SDS011;57917;51.380;-0.176;2022-08-01T00:49:11;4.38;;;1.40;;
29700;SDS011;57917;51.380;-0.176;2022-08-01T00:55:00;2.78;;;1.30;;
29700;SDS011;57917;51.380;-0.176;2022-08-01T01:00:59;1.00;;;0.90;;
29700;SDS011;57917;51.380;-0.176;2022-08-01T01:07:06;1.55;;;1.15;;
29700;SDS011;57917;51.380;-0.176;2022-08-01T01:18:56;3.13;;;1.23;;
29700;SDS011;57917;51.380;-0.176;2022-08-01T01:30:41;1.48;;;1.10;;
29700;SDS011;57917;51.380;-0.176;2022-08-01T01:36:31;2.15;;;1.13;;
29700;SDS011;57917;51.380;-0.176;2022-08-01T01:42:25;4.85;;;1.30;;
29700;SDS011;57917;51.380;-0.176;2022-08-01T01:48:14;3.05;;;1.25;;
29700;SDS011;57917;51.380;-0.176;2022-08-01T01:54:04;3.90;;;1.13;;
29700;SDS011;57917;51.380;-0.176;2022-08-01T01:59:53;1.65;;;0.90;;
29700;SDS011;57917;51.380;-0.176;2022-08-01T02:05:42;1.15;;;0.90;;
29700;SDS011;57917;51.380;-0.176;2022-08-01T02:11:31;2.25;;;1.02;;
29700;SDS011;57917;51.380;-0.176;2022-08-01T02:17:44;8.38;;;1.30;;
29700;SDS011;57917;51.380;-0.176;2022-08-01T02:23:35;2.33;;;1.03;;
29700;SDS011;57917;51.380;-0.176;2022-08-01T02:29:29;1.55;;;1.05;;
29700;SDS011;57917;51.380;-0.176;2022-08-01T02:35:25;1.70;;;0.93;;
29700;SDS011;57917;51.380;-0.176;2022-08-01T02:41:16;3.25;;;1.10;;
29700;SDS011;57917;51.380;-0.176;2022-08-01T02:47:06;6.53;;;1.00;;
29700;SDS011;57917;51.380;-0.176;2022-08-01T02:52:53;5.60;;;1.38;;
29700;SDS011;57917;51.380;-0.176;2022-08-01T02:58:43;5.10;;;1.35;;
29700;SDS011;57917;51.380;-0.176;2022-08-01T03:04:33;5.75;;;1.20;;
29700;SDS011;57917;51.380;-0.176;2022-08-01T03:10:21;6.38;;;1.25;;
29700;SDS011;57917;51.380;-0.176;2022-08-01T03:16:11;9.48;;;1.20;;
29700;SDS011;57917;51.380;-0.176;2022-08-01T03:21:59;3.13;;;1.42;;
29700;SDS011;57917;51.380;-0.176;2022-08-01T03:27:54;3.20;;;1.23;;
29700;SDS011;57917;51.380;-0.176;2022-08-01T03:33:42;2.00;;;1.30;;
29700;SDS011;57917;51.380;-0.176;2022-08-01T03:39:30;4.57;;;1.55;;
29700;SDS011;57917;51.380;-0.176;2022-08-01T03:45:28;3.93;;;1.43;;
29700;SDS011;57917;51.380;-0.176;2022-08-01T03:51:20;24.23;;;7.95;;
29700;SDS011;57917;51.380;-0.176;2022-08-01T03:57:09;6.18;;;2.40;;
29700;SDS011;57917;51.380;-0.176;2022-08-01T04:03:16;3.88;;;2.30;;
29700;SDS011;57917;51.380;-0.176;2022-08-01T04:09:04;16.02;;;3.75;;
29700;SDS011;57917;51.380;-0.176;2022-08-01T04:14:56;14.70;;;6.00;;
29700;SDS011;57917;51.380;-0.176;2022-08-01T04:20:43;26.38;;;9.50;;
29700;SDS011;57917;51.380;-0.176;2022-08-01T04:26:32;21.63;;;9.35;;
29700;SDS011;57917;51.380;-0.176;2022-08-01T04:32:21;23.65;;;8.63;;
29700;SDS011;57917;51.380;-0.176;2022-08-01T04:38:08;21.80;;;8.88;;
29700;SDS011;57917;51.380;-0.176;2022-08-01T04:43:59;17.02;;;7.78;;
29700;SDS011;57917;51.380;-0.176;2022-08-01T04:49:46;7.03;;;3.80;;
29700;SDS011;57917;51.380;-0.176;2022-08-01T04:55:36;6.68;;;3.38;;
29700;SDS011;57917;51.380;-0.176;2022-08-01T05:01:23;8.20;;;3.30;;
29700;SDS011;57917;51.380;-0.176;2022-08-01T05:07:10;4.50;;;2.17;;
29700;SDS011;57917;51.380;-0.176;2022-08-01T05:12:58;6.43;;;2.67;;
29700;SDS011;57917;51.380;-0.176;2022-08-01T05:18:44;6.70;;;2.35;;
29700;SDS011;57917;51.380;-0.176;2022-08-01T05:24:33;3.97;;;2.38;;
29700;SDS011;57917;51.380;-0.176;2022-08-01T05:30:22;6.15;;;2.28;;
29700;SDS011;57917;51.380;-0.176;2022-08-01T05:36:09;3.65;;;1.50;;
29700;SDS011;57917;51.380;-0.176;2022-08-01T05:41:58;2.30;;;1.48;;
29700;SDS011;57917;51.380;-0.176;2022-08-01T05:47:45;4.03;;;1.83;;
29700;SDS011;57917;51.380;-0.176;2022-08-01T05:53:32;2.92;;;1.58;;
29700;SDS011;57917;51.380;-0.176;2022-08-01T05:59:20;3.67;;;1.55;;
29700;SDS011;57917;51.380;-0.176;2022-08-01T06:05:07;2.70;;;1.88;;
29700;SDS011;57917;51.380;-0.176;2022-08-01T06:10:59;2.78;;;1.80;;
29700;SDS011;57917;51.380;-0.176;2022-08-01T06:16:49;2.78;;;1.83;;
29700;SDS011;57917;51.380;-0.176;2022-08-01T06:22:37;4.32;;;1.83;;
29700;SDS011;57917;51.380;-0.176;2022-08-01T06:28:27;4.88;;;1.38;;
29700;SDS011;57917;51.380;-0.176;2022-08-01T06:34:14;7.00;;;1.58;;
29700;SDS011;57917;51.380;-0.176;2022-08-01T06:40:05;3.75;;;1.67;;
29700;SDS011;57917;51.380;-0.176;2022-08-01T06:46:13;6.85;;;1.55;;
29700;SDS011;57917;51.380;-0.176;2022-08-01T06:52:00;1.85;;;1.52;;
29700;SDS011;57917;51.380;-0.176;2022-08-01T06:57:50;4.85;;;1.90;;
29700;SDS011;57917;51.380;-0.176;2022-08-01T07:03:37;5.07;;;1.73;;
29700;SDS011;57917;51.380;-0.176;2022-08-01T07:09:40;5.35;;;1.73;;
29700;SDS011;57917;51.380;-0.176;2022-08-01T07:15:29;2.85;;;1.67;;
29700;SDS011;57917;51.380;-0.176;2022-08-01T07:21:18;4.60;;;1.70;;
29700;SDS011;57917;51.380;-0.176;2022-08-01T07:27:28;3.53;;;1.83;;
29700;SDS011;57917;51.380;-0.176;2022-08-01T07:33:16;4.18;;;1.90;;
29700;SDS011;57917;51.380;-0.176;2022-08-01T07:39:03;3.45;;;1.67;;
29700;SDS011;57917;51.380;-0.176;2022-08-01T07:44:50;4.65;;;2.20;;
29700;SDS011;57917;51.380;-0.176;2022-08-01T07:50:51;7.45;;;1.85;;
29700;SDS011;57917;51.380;-0.176;2022-08-01T07:57:22;11.35;;;1.95;;
29700;SDS011;57917;51.380;-0.176;2022-08-01T08:03:51;2.80;;;1.60;;
29700;SDS011;57917;51.380;-0.176;2022-08-01T08:09:38;4.35;;;1.95;;
29700;SDS011;57917;51.380;-0.176;2022-08-01T08:15:25;2.35;;;1.70;;
29700;SDS011;57917;51.380;-0.176;2022-08-01T08:21:21;2.20;;;1.60;;
29700;SDS011;57917;51.380;-0.176;2022-08-01T08:27:27;3.72;;;1.60;;
29700;SDS011;57917;51.380;-0.176;2022-08-01T08:33:28;2.78;;;1.25;;
29700;SDS011;57917;51.380;-0.176;2022-08-01T08:39:31;2.33;;;1.20;;
29700;SDS011;57917;51.380;-0.176;2022-08-01T08:45:33;3.20;;;1.10;;
29700;SDS011;57917;51.380;-0.176;2022-08-01T08:51:44;5.05;;;1.35;;
29700;SDS011;57917;51.380;-0.176;2022-08-01T08:57:35;2.58;;;1.17;;
29700;SDS011;57917;51.380;-0.176;2022-08-01T09:03:32;2.58;;;1.23;;
29700;SDS011;57917;51.380;-0.176;2022-08-01T09:09:24;2.03;;;1.23;;
29700;SDS011;57917;51.380;-0.176;2022-08-01T09:15:45;4.50;;;1.30;;
29700;SDS011;57917;51.380;-0.176;2022-08-01T09:21:37;1.92;;;1.10;;
29700;SDS011;57917;51.380;-0.176;2022-08-01T09:27:25;3.78;;;1.38;;
29700;SDS011;57917;51.380;-0.176;2022-08-01T09:33:12;3.35;;;1.08;;
29700;SDS011;57917;51.380;-0.176;2022-08-01T09:39:11;3.88;;;1.25;;
29700;SDS011;57917;51.380;-0.176;2022-08-01T09:45:03;2.25;;;1.10;;
29700;SDS011;57917;51.380;-0.176;2022-08-01T09:50:52;2.17;;;1.00;;
29700;SDS011;57917;51.380;-0.176;2022-08-01T09:56:41;2.45;;;1.23;;
29700;SDS011;57917;51.380;-0.176;2022-08-01T10:02:37;3.67;;;1.10;;
29700;SDS011;57917;51.380;-0.176;2022-08-01T10:08:44;2.47;;;0.93;;
29700;SDS011;57917;51.380;-0.176;2022-08-01T10:14:41;2.90;;;1.10;;
29700;SDS011;57917;51.380;-0.176;2022-08-01T10:20:36;7.80;;;1.05;;
29700;SDS011;57917;51.380;-0.176;2022-08-01T10:26:29;6.63;;;3.67;;
29700;SDS011;57917;51.380;-0.176;2022-08-01T10:32:25;4.20;;;0.75;;
29700;SDS011;57917;51.380;-0.176;2022-08-01T10:38:14;1.85;;;0.73;;
29700;SDS011;57917;51.380;-0.176;2022-08-01T10:44:08;4.75;;;1.00;;
29700;SDS011;57917;51.380;-0.176;2022-08-01T10:50:04;4.53;;;0.70;;
29700;SDS011;57917;51.380;-0.176;2022-08-01T11:02:34;1.15;;;0.80;;
29700;SDS011;57917;51.380;-0.176;2022-08-01T11:08:31;2.85;;;0.80;;
29700;SDS011;57917;51.380;-0.176;2022-08-01T11:14:26;1.05;;;0.73;;
29700;SDS011;57917;51.380;-0.176;2022-08-01T11:20:43;1.35;;;0.68;;
29700;SDS011;57917;51.380;-0.176;2022-08-01T11:27:15;0.77;;;0.63;;
29700;SDS011;57917;51.380;-0.176;2022-08-01T11:40:13;1.10;;;0.60;;
29700;SDS011;57917;51.380;-0.176;2022-08-01T11:46:12;2.50;;;1.08;;
29700;SDS011;57917;51.380;-0.176;2022-08-01T11:52:06;1.30;;;0.88;;
29700;SDS011;57917;51.380;-0.176;2022-08-01T11:58:05;2.55;;;0.80;;
29700;SDS011;57917;51.380;-0.176;2022-08-01T12:04:08;2.58;;;1.10;;
29700;SDS011;57917;51.380;-0.176;2022-08-01T12:15:53;1.53;;;1.20;;
29700;SDS011;57917;51.380;-0.176;2022-08-01T12:21:42;2.05;;;0.80;;
29700;SDS011;57917;51.380;-0.176;2022-08-01T12:27:30;1.70;;;0.80;;
29700;SDS011;57917;51.380;-0.176;2022-08-01T12:40:11;1.35;;;0.80;;
29700;SDS011;57917;51.380;-0.176;2022-08-01T12:46:06;3.42;;;1.48;;
29700;SDS011;57917;51.380;-0.176;2022-08-01T12:52:06;3.47;;;0.90;;
29700;SDS011;57917;51.380;-0.176;2022-08-01T12:58:09;1.23;;;0.73;;
29700;SDS011;57917;51.380;-0.176;2022-08-01T13:04:02;1.42;;;1.02;;
29700;SDS011;57917;51.380;-0.176;2022-08-01T13:09:55;2.20;;;1.00;;
29700;SDS011;57917;51.380;-0.176;2022-08-01T13:15:51;6.03;;;0.80;;
29700;SDS011;57917;51.380;-0.176;2022-08-01T13:21:55;5.63;;;1.20;;
29700;SDS011;57917;51.380;-0.176;2022-08-01T13:27:48;2.65;;;1.10;;
29700;SDS011;57917;51.380;-0.176;2022-08-01T13:33:57;1.10;;;0.90;;
29700;SDS011;57917;51.380;-0.176;2022-08-01T13:39:49;2.00;;;1.00;;
29700;SDS011;57917;51.380;-0.176;2022-08-01T13:45:36;1.70;;;0.85;;
29700;SDS011;57917;51.380;-0.176;2022-08-01T13:51:25;1.10;;;0.70;;
29700;SDS011;57917;51.380;-0.176;2022-08-01T13:57:13;3.90;;;0.75;;
29700;SDS011;57917;51.380;-0.176;2022-08-01T14:03:03;1.90;;;0.95;;
29700;SDS011;57917;51.380;-0.176;2022-08-01T14:08:53;1.20;;;0.52;;
29700;SDS011;57917;51.380;-0.176;2022-08-01T14:14:40;8.77;;;1.25;;
29700;SDS011;57917;51.380;-0.176;2022-08-01T14:20:28;2.67;;;0.73;;
29700;SDS011;57917;51.380;-0.176;2022-08-01T14:26:17;4.65;;;0.75;;
29700;SDS011;57917;51.380;-0.176;2022-08-01T14:32:04;4.30;;;0.50;;
29700;SDS011;57917;51.380;-0.176;2022-08-01T14:37:51;2.67;;;1.05;;
29700;SDS011;57917;51.380;-0.176;2022-08-01T14:43:43;2.67;;;0.73;;
29700;SDS011;57917;51.380;-0.176;2022-08-01T14:49:31;2.63;;;0.47;;
29700;SDS011;57917;51.380;-0.176;2022-08-01T14:55:18;0.85;;;0.70;;
29700;SDS011;57917;51.380;-0.176;2022-08-01T15:01:08;3.05;;;0.80;;
29700;SDS011;57917;51.380;-0.176;2022-08-01T15:06:55;1.05;;;0.85;;
29700;SDS011;57917;51.380;-0.176;2022-08-01T15:12:42;0.98;;;0.70;;
29700;SDS011;57917;51.380;-0.176;2022-08-01T15:18:36;3.03;;;1.15;;
29700;SDS011;57917;51.380;-0.176;2022-08-01T15:24:22;3.35;;;0.90;;
29700;SDS011;57917;51.380;-0.176;2022-08-01T15:30:09;1.27;;;0.80;;
29700;SDS011;57917;51.380;-0.176;2022-08-01T15:35:59;4.85;;;0.98;;
29700;SDS011;57917;51.380;-0.176;2022-08-01T15:41:59;3.42;;;2.10;;
29700;SDS011;57917;51.380;-0.176;2022-08-01T15:47:53;2.13;;;1.10;;
29700;SDS011;57917;51.380;-0.176;2022-08-01T15:53:52;1.45;;;0.70;;
29700;SDS011;57917;51.380;-0.176;2022-08-01T15:59:42;1.73;;;0.70;;
29700;SDS011;57917;51.380;-0.176;2022-08-01T16:05:30;1.00;;;0.80;;
29700;SDS011;57917;51.380;-0.176;2022-08-01T16:11:19;3.47;;;1.13;;
29700;SDS011;57917;51.380;-0.176;2022-08-01T16:17:14;4.00;;;1.15;;
29700;SDS011;57917;51.380;-0.176;2022-08-01T16:23:07;2.45;;;1.30;;
29700;SDS011;57917;51.380;-0.176;2022-08-01T16:28:55;3.25;;;1.17;;
29700;SDS011;57917;51.380;-0.176;2022-08-01T16:34:44;2.47;;;0.90;;
29700;SDS011;57917;51.380;-0.176;2022-08-01T16:40:56;3.78;;;1.20;;
29700;SDS011;57917;51.380;-0.176;2022-08-01T16:46:44;2.47;;;1.05;;
29700;SDS011;57917;51.380;-0.176;2022-08-01T16:52:34;4.03;;;1.30;;
29700;SDS011;57917;51.380;-0.176;2022-08-01T16:58:45;3.83;;;1.42;;
29700;SDS011;57917;51.380;-0.176;2022-08-01T17:04:34;6.78;;;1.75;;
29700;SDS011;57917;51.380;-0.176;2022-08-01T17:10:22;4.78;;;1.58;;
29700;SDS011;57917;51.380;-0.176;2022-08-01T17:16:16;3.38;;;1.40;;
29700;SDS011;57917;51.380;-0.176;2022-08-01T17:22:28;3.03;;;1.52;;
29700;SDS011;57917;51.380;-0.176;2022-08-01T17:29:27;4.93;;;1.58;;
29700;SDS011;57917;51.380;-0.176;2022-08-01T17:35:50;1.80;;;1.50;;
29700;SDS011;57917;51.380;-0.176;2022-08-01T17:41:56;2.78;;;1.60;;
29700;SDS011;57917;51.380;-0.176;2022-08-01T17:48:22;7.38;;;1.65;;
29700;SDS011;57917;51.380;-0.176;2022-08-01T17:54:12;4.38;;;1.80;;
29700;SDS011;57917;51.380;-0.176;2022-08-01T18:00:04;5.00;;;2.13;;
29700;SDS011;57917;51.380;-0.176;2022-08-01T18:05:53;3.88;;;1.85;;
29700;SDS011;57917;51.380;-0.176;2022-08-01T18:11:44;3.88;;;1.60;;
29700;SDS011;57917;51.380;-0.176;2022-08-01T18:17:32;5.30;;;2.30;;
29700;SDS011;57917;51.380;-0.176;2022-08-01T18:23:25;6.63;;;1.83;;
29700;SDS011;57917;51.380;-0.176;2022-08-01T18:29:12;3.78;;;1.90;;
29700;SDS011;57917;51.380;-0.176;2022-08-01T18:35:08;3.88;;;2.13;;
29700;SDS011;57917;51.380;-0.176;2022-08-01T18:40:59;8.93;;;2.38;;
29700;SDS011;57917;51.380;-0.176;2022-08-01T18:46:49;9.85;;;2.30;;
29700;SDS011;57917;51.380;-0.176;2022-08-01T18:52:37;7.80;;;2.10;;
29700;SDS011;57917;51.380;-0.176;2022-08-01T18:58:26;6.20;;;2.60;;
29700;SDS011;57917;51.380;-0.176;2022-08-01T19:04:13;6.93;;;3.83;;
29700;SDS011;57917;51.380;-0.176;2022-08-01T19:10:13;6.68;;;2.65;;
29700;SDS011;57917;51.380;-0.176;2022-08-01T19:16:03;3.60;;;2.60;;
29700;SDS011;57917;51.380;-0.176;2022-08-01T19:21:50;5.68;;;2.40;;
29700;SDS011;57917;51.380;-0.176;2022-08-01T19:27:38;4.07;;;2.33;;
29700;SDS011;57917;51.380;-0.176;2022-08-01T19:33:31;4.50;;;2.55;;
29700;SDS011;57917;51.380;-0.176;2022-08-01T19:39:22;9.10;;;2.72;;
29700;SDS011;57917;51.380;-0.176;2022-08-01T19:45:12;8.30;;;2.05;;
29700;SDS011;57917;51.380;-0.176;2022-08-01T19:51:00;7.93;;;2.70;;
29700;SDS011;57917;51.380;-0.176;2022-08-01T19:57:19;4.45;;;1.67;;
29700;SDS011;57917;51.380;-0.176;2022-08-01T20:03:09;7.85;;;2.03;;
29700;SDS011;57917;51.380;-0.176;2022-08-01T20:09:06;3.10;;;1.90;;
29700;SDS011;57917;51.380;-0.176;2022-08-01T20:14:58;6.37;;;2.20;;
29700;SDS011;57917;51.380;-0.176;2022-08-01T20:20:46;4.82;;;2.08;;
29700;SDS011;57917;51.380;-0.176;2022-08-01T20:26:34;2.38;;;1.73;;
29700;SDS011;57917;51.380;-0.176;2022-08-01T20:32:23;8.95;;;2.00;;
29700;SDS011;57917;51.380;-0.176;2022-08-01T20:38:19;3.42;;;1.70;;
29700;SDS011;57917;51.380;-0.176;2022-08-01T20:44:09;5.17;;;2.00;;
29700;SDS011;57917;51.380;-0.176;2022-08-01T20:49:56;16.85;;;1.85;;
29700;SDS011;57917;51.380;-0.176;2022-08-01T21:03:01;3.05;;;1.25;;
29700;SDS011;57917;51.380;-0.176;2022-08-01T21:09:07;3.15;;;1.35;;
29700;SDS011;57917;51.380;-0.176;2022-08-01T21:15:00;3.42;;;1.27;;
29700;SDS011;57917;51.380;-0.176;2022-08-01T21:20:55;7.07;;;1.30;;
29700;SDS011;57917;51.380;-0.176;2022-08-01T21:26:45;3.30;;;1.10;;
29700;SDS011;57917;51.380;-0.176;2022-08-01T21:32:36;6.68;;;0.80;;
29700;SDS011;57917;51.380;-0.176;2022-08-01T21:38:30;3.17;;;1.13;;
29700;SDS011;57917;51.380;-0.176;2022-08-01T21:44:27;2.95;;;1.20;;
29700;SDS011;57917;51.380;-0.176;2022-08-01T21:51:07;6.25;;;1.40;;
29700;SDS011;57917;51.380;-0.176;2022-08-01T22:03:50;2.08;;;0.98;;
29700;SDS011;57917;51.380;-0.176;2022-08-01T22:09:38;1.75;;;0.90;;
29700;SDS011;57917;51.380;-0.176;2022-08-01T22:15:33;6.55;;;1.23;;
29700;SDS011;57917;51.380;-0.176;2022-08-01T22:21:32;2.58;;;1.00;;
29700;SDS011;57917;51.380;-0.176;2022-08-01T22:27:20;3.05;;;1.08;;
29700;SDS011;57917;51.380;-0.176;2022-08-01T22:33:38;1.77;;;0.70;;
29700;SDS011;57917;51.380;-0.176;2022-08-01T22:39:38;1.30;;;0.90;;
29700;SDS011;57917;51.380;-0.176;2022-08-01T22:52:11;4.22;;;1.00;;
29700;SDS011;57917;51.380;-0.176;2022-08-01T22:58:04;1.67;;;0.90;;
29700;SDS011;57917;51.380;-0.176;2022-08-01T23:04:03;1.30;;;0.80;;
29700;SDS011;57917;51.380;-0.176;2022-08-01T23:09:54;1.95;;;0.77;;
29700;SDS011;57917;51.380;-0.176;2022-08-01T23:15:51;2.13;;;0.93;;
29700;SDS011;57917;51.380;-0.176;2022-08-01T23:33:47;8.27;;;1.50;;
29700;SDS011;57917;51.380;-0.176;2022-08-01T23:39:35;3.25;;;0.98;;
29700;SDS011;57917;51.380;-0.176;2022-08-01T23:45:35;2.85;;;1.10;;
29700;SDS011;57917;51.380;-0.176;2022-08-01T23:51:51;2.95;;;0.90;;
29700;SDS011;57917;51.380;-0.176;2022-08-01T23:57:42;1.25;;;0.90;;
